This is the latest recevied weather packets stored in our database for station/object SQ3VAS-10. If no packets are shown the sender has not sent any weather packets the latest 10 day(s).
| Time | Temp. | Humidity | Pressure | Rain* | Wind** | Luminosity | Snow |
|---|---|---|---|---|---|---|---|
| 1777604147 | 5° C | 74% | 1029.5 hPa | - | - | - | - |
| 1777603576 | 5° C | 74% | 1029.5 hPa | - | - | - | - |
| 1777603004 | 5° C | 73% | 1029.6 hPa | - | - | - | - |
| 1777602432 | 5° C | 74% | 1029.6 hPa | - | - | - | - |
| 1777601861 | 5° C | 73% | 1029.5 hPa | - | - | - | - |
| 1777601289 | 5° C | 75% | 1029.6 hPa | - | - | - | - |
| 1777600718 | 5.56° C | 72% | 1029.5 hPa | - | - | - | - |
| 1777600146 | 5° C | 74% | 1029.7 hPa | - | - | - | - |
| 1777599575 | 5.56° C | 72% | 1029.6 hPa | - | - | - | - |
| 1777599003 | 5.56° C | 74% | 1029.5 hPa | - | - | - | - |
| 1777598432 | 6.11° C | 73% | 1029.5 hPa | - | - | - | - |
| 1777597860 | 6.11° C | 71% | 1029.4 hPa | - | - | - | - |
| 1777597288 | 6.11° C | 72% | 1029.5 hPa | - | - | - | - |
| 1777596717 | 6.11° C | 71% | 1029.4 hPa | - | - | - | - |
| 1777596146 | 6.67° C | 70% | 1029.4 hPa | - | - | - | - |
| 1777595573 | 6.67° C | 70% | 1029.4 hPa | - | - | - | - |
| 1777595002 | 6.67° C | 70% | 1029.3 hPa | - | - | - | - |
| 1777594430 | 6.67° C | 69% | 1029.3 hPa | - | - | - | - |
| 1777593858 | 6.67° C | 68% | 1029.4 hPa | - | - | - | - |
| 1777593287 | 6.67° C | 67% | 1029.5 hPa | - | - | - | - |
| 1777592715 | 7.22° C | 66% | 1029.4 hPa | - | - | - | - |
| 1777592143 | 7.22° C | 67% | 1029.3 hPa | - | - | - | - |
| 1777591571 | 7.78° C | 65% | 1029.2 hPa | - | - | - | - |
| 1777591000 | 7.78° C | 65% | 1029.4 hPa | - | - | - | - |
| 1777590428 | 7.78° C | 64% | 1029.4 hPa | - | - | - | - |
* Rain since midnight (hover to see other rain measurements)
** Current wind speed in m/s (hover to see current wind gust speed)